Time;durP1;ratioP1;P1;durP2;ratioP2;P2;SDS_P1;SDS_P2;PMS_P1;PMS_P2;Temp;Humidity;BMP_temperature;BMP_pressure;BME280_temperature;BME280_humidity;BME280_pressure;Samples;Min_cycle;Max_cycle;Signal;HPM_P1;HPM_P2
2022/04/04 00:00:25;;;;;;;228.40;219.97;;;1.60;95.50;;;;;;5013169;28;20946;-79
2022/04/04 00:02:51;;;;;;;249.97;239.77;;;1.50;96.10;;;;;;5019397;28;20444;-79
2022/04/04 00:05:18;;;;;;;302.33;291.37;;;1.40;96.80;;;;;;5033733;28;20452;-81
2022/04/04 00:07:45;;;;;;;297.87;286.63;;;1.20;99.10;;;;;;5029178;28;20476;-79
2022/04/04 00:10:12;;;;;;;341.37;327.90;;;1.20;99.90;;;;;;5013639;28;20461;-79
2022/04/04 00:12:39;;;;;;;386.97;371.47;;;1.10;99.90;;;;;;5016579;28;20515;-79
2022/04/04 00:15:08;;;;;;;388.27;373.17;;;1.20;99.90;;;;;;5033670;28;20467;-79
2022/04/04 00:17:35;;;;;;;413.90;397.07;;;1.10;99.90;;;;;;5031517;28;20475;-79
2022/04/04 00:20:03;;;;;;;417.10;399.87;;;1.10;99.90;;;;;;5013100;28;20461;-79
2022/04/04 00:22:29;;;;;;;432.80;414.80;;;1.20;99.90;;;;;;5013508;28;20548;-79
2022/04/04 00:24:56;;;;;;;429.63;412.00;;;1.10;99.90;;;;;;5032953;28;20825;-79
2022/04/04 00:27:23;;;;;;;405.80;388.80;;;1.10;99.90;;;;;;5032882;28;20488;-79
2022/04/04 00:29:50;;;;;;;415.37;398.63;;;1.00;99.90;;;;;;5031957;28;20448;-79
2022/04/04 00:32:18;;;;;;;482.63;461.57;;;0.90;99.90;;;;;;5032708;28;20467;-81
2022/04/04 00:34:45;;;;;;;514.50;492.00;;;1.10;99.90;;;;;;5013344;28;20452;-79
2022/04/04 00:37:11;;;;;;;546.73;521.27;;;1.20;99.90;;;;;;5013070;28;20484;-79
2022/04/04 00:39:38;;;;;;;549.57;524.30;;;1.10;99.90;;;;;;5031277;28;20448;-79
2022/04/04 00:42:06;;;;;;;548.60;522.50;;;1.20;99.90;;;;;;5032972;28;20452;-79
2022/04/04 00:44:33;;;;;;;526.83;502.73;;;1.30;99.90;;;;;;5015105;28;20449;-79
2022/04/04 00:47:01;;;;;;;519.67;496.27;;;1.30;99.90;;;;;;5012940;28;20485;-79
2022/04/04 00:49:29;;;;;;;550.47;524.80;;;1.10;99.90;;;;;;5012252;28;20983;-79
2022/04/04 00:51:56;;;;;;;535.90;511.50;;;1.10;99.90;;;;;;5013004;28;20464;-79
2022/04/04 00:54:23;;;;;;;564.00;537.20;;;1.00;99.90;;;;;;5013074;28;20825;-79
2022/04/04 00:56:50;;;;;;;582.33;553.60;;;1.00;99.90;;;;;;5012605;28;20469;-79
2022/04/04 00:59:18;;;;;;;595.27;565.77;;;1.00;99.90;;;;;;5028395;28;20460;-80
2022/04/04 01:01:44;;;;;;;621.43;590.43;;;1.00;99.90;;;;;;5034497;28;20467;-79
2022/04/04 01:04:13;;;;;;;615.90;584.90;;;1.10;99.90;;;;;;5034166;28;20502;-80
2022/04/04 01:06:43;;;;;;;611.70;580.90;;;1.10;99.90;;;;;;5034064;28;20568;-80
2022/04/04 01:09:13;;;;;;;599.60;570.07;;;1.20;99.90;;;;;;5018727;28;20453;-80
2022/04/04 01:12:05;;;;;;;611.13;581.40;;;1.20;99.90;;;;;;5014617;28;20465;-80
2022/04/04 01:14:33;;;;;;;602.80;573.30;;;1.30;99.90;;;;;;5031444;28;20217;-79
2022/04/04 01:17:00;;;;;;;588.63;560.57;;;1.20;99.90;;;;;;5033781;28;20468;-80
2022/04/04 01:19:27;;;;;;;599.93;571.10;;;1.20;99.90;;;;;;5022171;28;20457;-79
2022/04/04 01:21:55;;;;;;;577.90;550.70;;;1.20;99.90;;;;;;4994250;28;20881;-80
2022/04/04 01:24:24;;;;;;;576.80;550.40;;;1.10;99.90;;;;;;4994949;28;20838;-79
2022/04/04 01:26:52;;;;;;;566.33;539.53;;;1.30;99.90;;;;;;5022631;28;20503;-80
2022/04/04 01:29:20;;;;;;;569.43;543.03;;;1.20;99.90;;;;;;5033902;28;20828;-80
2022/04/04 01:31:47;;;;;;;588.87;561.87;;;1.30;99.90;;;;;;5017984;28;20457;-79
2022/04/04 01:34:14;;;;;;;581.37;554.10;;;1.20;99.90;;;;;;5014203;28;20453;-79
2022/04/04 01:36:41;;;;;;;607.20;577.97;;;1.00;99.90;;;;;;5013930;28;20472;-80
2022/04/04 01:39:07;;;;;;;618.43;588.40;;;1.10;99.90;;;;;;5013603;28;20835;-80
2022/04/04 01:41:35;;;;;;;584.67;557.93;;;1.10;99.90;;;;;;5026982;28;20459;-80
2022/04/04 01:44:03;;;;;;;596.80;569.00;;;1.20;99.90;;;;;;5033567;28;20452;-80
2022/04/04 01:46:29;;;;;;;593.73;565.67;;;1.00;99.90;;;;;;5020393;28;20477;-79
2022/04/04 01:48:58;;;;;;;576.70;550.20;;;1.20;99.90;;;;;;5011687;28;20456;-80
2022/04/04 01:51:26;;;;;;;594.17;566.60;;;1.10;99.90;;;;;;5025069;28;20452;-80
2022/04/04 01:53:53;;;;;;;573.67;547.67;;;1.10;99.90;;;;;;5033583;28;20460;-79
2022/04/04 01:56:20;;;;;;;580.67;554.67;;;1.10;99.90;;;;;;5032722;28;20475;-80
2022/04/04 01:58:49;;;;;;;556.70;531.80;;;1.10;99.90;;;;;;5032933;28;20828;-80
2022/04/04 02:01:18;;;;;;;574.97;549.17;;;1.10;99.90;;;;;;5023927;28;20480;-79
2022/04/04 02:03:47;;;;;;;566.60;540.87;;;1.20;99.90;;;;;;5013829;28;20453;-80
2022/04/04 02:06:15;;;;;;;570.77;545.17;;;1.10;99.90;;;;;;5022658;28;21004;-79
2022/04/04 02:08:42;;;;;;;587.93;561.07;;;1.20;99.90;;;;;;5032535;28;20452;-79
2022/04/04 02:11:09;;;;;;;577.87;551.33;;;1.20;99.90;;;;;;5025287;28;20450;-79
2022/04/04 02:13:36;;;;;;;560.57;535.37;;;1.30;99.90;;;;;;5013555;28;20461;-80
2022/04/04 02:16:05;;;;;;;526.70;503.93;;;1.30;99.90;;;;;;5014462;28;20472;-79
2022/04/04 02:18:34;;;;;;;507.33;485.37;;;1.30;99.90;;;;;;5012952;28;20469;-79
2022/04/04 02:21:01;;;;;;;510.83;488.57;;;1.30;99.90;;;;;;5027370;28;20449;-80
2022/04/04 02:23:28;;;;;;;493.57;473.27;;;1.30;99.90;;;;;;5029640;28;20459;-79
2022/04/04 02:25:57;;;;;;;478.57;459.47;;;1.20;99.90;;;;;;5029314;28;20483;-80
2022/04/04 02:28:25;;;;;;;474.33;455.03;;;1.30;99.90;;;;;;5020035;28;20449;-80
2022/04/04 02:30:52;;;;;;;461.87;442.97;;;1.40;99.90;;;;;;5026120;28;20453;-80
2022/04/04 02:33:21;;;;;;;439.07;420.83;;;1.40;99.90;;;;;;5015999;28;20444;-80
2022/04/04 02:35:50;;;;;;;391.50;376.13;;;1.50;99.90;;;;;;5016722;28;20469;-80
2022/04/04 02:38:17;;;;;;;391.03;375.43;;;1.30;99.90;;;;;;5013015;28;20450;-80
2022/04/04 02:40:45;;;;;;;369.97;355.87;;;1.50;99.90;;;;;;5012066;28;20885;-81
2022/04/04 02:43:12;;;;;;;357.13;343.83;;;1.40;99.90;;;;;;5013669;28;20483;-83
2022/04/04 02:45:38;;;;;;;327.80;315.53;;;1.60;99.90;;;;;;5027152;28;20453;-80
2022/04/04 02:48:07;;;;;;;284.53;273.43;;;1.50;99.90;;;;;;5023391;28;20840;-79
2022/04/04 02:50:35;;;;;;;289.67;279.03;;;1.50;99.90;;;;;;5026545;28;20460;-79
2022/04/04 02:53:02;;;;;;;245.47;236.23;;;1.60;99.90;;;;;;5027944;28;20460;-80
2022/04/04 02:58:14;;;;;;;243.47;234.37;;;1.70;99.90;;;;;;5016224;28;21012;-80
2022/04/04 03:00:41;;;;;;;220.90;212.20;;;1.60;99.90;;;;;;5013790;28;20507;-79
2022/04/04 03:03:08;;;;;;;216.30;208.00;;;1.70;99.20;;;;;;5015068;28;20479;-79
2022/04/04 03:05:37;;;;;;;193.07;185.47;;;1.70;99.30;;;;;;5014612;28;20461;-79
2022/04/04 03:08:04;;;;;;;226.57;217.80;;;1.60;99.20;;;;;;5013562;28;20481;-79
2022/04/04 03:10:31;;;;;;;230.00;221.00;;;1.50;99.70;;;;;;5014632;28;20464;-80
2022/04/04 03:12:59;;;;;;;252.73;243.37;;;1.50;99.90;;;;;;5015256;28;20453;-80
2022/04/04 03:15:26;;;;;;;252.37;242.87;;;1.40;99.90;;;;;;5015905;28;20527;-79
2022/04/04 03:17:56;;;;;;;278.50;267.67;;;1.50;99.90;;;;;;5025933;28;21059;-79
2022/04/04 03:20:25;;;;;;;255.23;245.43;;;1.40;99.90;;;;;;5014008;28;20461;-80
2022/04/04 03:22:56;;;;;;;255.07;245.37;;;1.50;99.90;;;;;;5016902;28;20457;-79
2022/04/04 03:25:24;;;;;;;214.03;205.53;;;1.50;99.90;;;;;;5014237;28;20981;-80
2022/04/04 03:27:51;;;;;;;208.10;200.00;;;1.50;99.20;;;;;;5029923;28;20483;-80
2022/04/04 03:30:20;;;;;;;210.17;201.97;;;1.60;99.20;;;;;;5021357;28;20845;-80
2022/04/04 03:32:47;;;;;;;145.67;139.17;;;1.60;98.60;;;;;;5027403;28;20452;-80
2022/04/04 03:35:15;;;;;;;129.60;123.72;;;1.70;97.00;;;;;;5037150;28;20459;-80
2022/04/04 03:37:43;;;;;;;98.47;93.37;;;1.80;96.70;;;;;;5035296;28;20296;-81
2022/04/04 03:40:13;;;;;;;86.30;81.57;;;1.80;95.60;;;;;;5035314;28;20456;-81
2022/04/04 03:42:40;;;;;;;80.70;76.40;;;1.90;94.90;;;;;;5026135;28;20449;-79
2022/04/04 03:45:07;;;;;;;66.50;62.67;;;1.90;94.90;;;;;;5016261;28;20453;-80
2022/04/04 03:47:35;;;;;;;60.83;57.30;;;1.90;94.30;;;;;;5026457;28;20730;-79
2022/04/04 03:50:01;;;;;;;52.60;49.37;;;1.80;93.70;;;;;;5036344;28;20475;-80
2022/04/04 03:52:29;;;;;;;50.37;47.17;;;1.80;93.50;;;;;;5030187;28;20461;-80
2022/04/04 03:54:55;;;;;;;52.23;48.33;;;1.90;93.20;;;;;;5015912;28;20829;-80
2022/04/04 03:57:24;;;;;;;50.10;46.47;;;1.80;92.80;;;;;;5015797;28;20476;-80
2022/04/04 03:59:51;;;;;;;48.87;45.63;;;1.80;93.10;;;;;;5013443;28;20461;-79
2022/04/04 04:02:18;;;;;;;45.77;42.57;;;1.70;93.00;;;;;;5015956;28;20460;-80
2022/04/04 04:04:45;;;;;;;45.87;42.67;;;1.80;92.90;;;;;;5015578;28;20456;-80
2022/04/04 04:07:15;;;;;;;38.00;35.03;;;1.70;92.70;;;;;;5015764;28;20543;-82
2022/04/04 04:09:42;;;;;;;36.07;33.23;;;1.90;91.90;;;;;;5014690;28;20968;-80
2022/04/04 04:12:11;;;;;;;30.10;27.00;;;1.80;91.60;;;;;;5016527;28;20460;-80
2022/04/04 04:14:39;;;;;;;29.37;26.50;;;1.90;90.70;;;;;;5016534;28;20485;-80
2022/04/04 04:17:08;;;;;;;26.90;24.10;;;1.90;90.20;;;;;;5016737;28;20469;-80
2022/04/04 04:22:21;;;;;;;29.13;22.20;;;1.90;88.40;;;;;;5015782;28;20598;-80
2022/04/04 04:24:48;;;;;;;27.90;21.77;;;2.10;87.10;;;;;;5017690;28;20460;-80
2022/04/04 04:27:18;;;;;;;25.80;20.37;;;2.00;88.20;;;;;;5019588;28;20568;-80
2022/04/04 04:30:15;;;;;;;30.00;19.07;;;2.00;86.70;;;;;;5018108;28;20457;-80
2022/04/04 04:35:47;;;;;;;21.73;17.70;;;1.90;85.80;;;;;;5016960;28;20248;-79
2022/04/04 04:38:17;;;;;;;28.47;18.13;;;1.90;85.90;;;;;;5042400;28;20470;-80
2022/04/04 04:40:52;;;;;;;27.07;18.00;;;2.00;84.90;;;;;;5027843;28;20572;-80
2022/04/04 04:43:19;;;;;;;24.23;14.50;;;2.00;84.80;;;;;;5020964;28;20459;-80
2022/04/04 04:45:47;;;;;;;19.23;14.30;;;2.10;84.20;;;;;;5034384;28;20483;-79
2022/04/04 04:48:14;;;;;;;21.43;16.83;;;2.00;83.50;;;;;;5048928;23;20479;-80
2022/04/04 04:50:41;;;;;;;18.43;14.73;;;2.10;83.80;;;;;;5038317;28;20454;-81
2022/04/04 04:53:08;;;;;;;19.87;14.63;;;2.20;82.30;;;;;;5039339;28;20486;-83
2022/04/04 04:55:35;;;;;;;21.00;15.07;;;2.20;82.60;;;;;;5038423;28;20479;-81
2022/04/04 04:58:02;;;;;;;18.27;13.53;;;2.30;80.90;;;;;;5022299;28;20473;-82
2022/04/04 05:00:30;;;;;;;18.40;11.23;;;2.30;79.10;;;;;;5019267;28;20456;-82
2022/04/04 05:05:43;;;;;;;22.57;13.73;;;2.60;77.10;;;;;;5019381;28;20444;-82
2022/04/04 05:08:09;;;;;;;18.53;11.50;;;2.60;75.80;;;;;;5018453;28;20476;-81
2022/04/04 05:10:36;;;;;;;24.50;12.10;;;2.80;74.30;;;;;;5017216;28;20533;-81
2022/04/04 05:13:03;;;;;;;16.90;10.77;;;2.80;74.30;;;;;;5019870;28;20460;-81
2022/04/04 05:15:30;;;;;;;20.23;12.20;;;2.70;74.50;;;;;;5018974;28;20457;-82
2022/04/04 05:17:59;;;;;;;14.30;11.83;;;2.70;73.20;;;;;;5019356;28;20477;-82
2022/04/04 05:20:26;;;;;;;19.07;10.70;;;2.70;73.10;;;;;;5012362;28;20474;-83
2022/04/04 05:22:53;;;;;;;15.33;10.57;;;2.70;72.70;;;;;;5009119;28;20453;-82
2022/04/04 05:25:20;;;;;;;16.30;11.37;;;2.70;71.80;;;;;;5018477;28;20536;-82
2022/04/04 05:27:48;;;;;;;17.80;11.87;;;2.60;73.10;;;;;;5017887;28;20484;-82
2022/04/04 05:30:15;;;;;;;14.87;11.23;;;2.70;71.70;;;;;;5016013;28;20461;-81
2022/04/04 05:32:43;;;;;;;13.63;9.93;;;2.80;71.50;;;;;;5018846;28;20453;-83
2022/04/04 05:35:12;;;;;;;13.10;10.37;;;2.80;69.80;;;;;;5019129;28;20912;-82
2022/04/04 05:37:39;;;;;;;16.10;10.97;;;2.90;70.10;;;;;;5017684;28;20497;-82
2022/04/04 05:40:08;;;;;;;14.13;9.57;;;2.90;69.70;;;;;;5018021;28;20460;-82
2022/04/04 05:42:35;;;;;;;14.67;10.03;;;3.10;69.70;;;;;;5018856;28;20887;-81
2022/04/04 05:45:02;;;;;;;13.83;10.00;;;3.00;69.50;;;;;;5018473;28;20458;-82
2022/04/04 05:47:30;;;;;;;14.53;11.63;;;3.00;69.90;;;;;;5018920;28;20512;-83
2022/04/04 05:49:57;;;;;;;15.60;10.47;;;2.90;69.90;;;;;;5017646;28;20455;-82
2022/04/04 05:52:25;;;;;;;15.97;10.27;;;3.00;69.60;;;;;;5017416;28;20488;-82
2022/04/04 05:54:56;;;;;;;13.77;9.73;;;3.00;68.80;;;;;;5012184;28;20451;-82
2022/04/04 05:57:23;;;;;;;15.23;10.43;;;3.20;68.10;;;;;;5012519;28;20465;-80
2022/04/04 05:59:50;;;;;;;15.53;9.53;;;3.20;68.00;;;;;;5014483;28;20464;-82
2022/04/04 06:02:16;;;;;;;32.40;10.57;;;3.20;68.50;;;;;;5013498;28;20480;-82
2022/04/04 06:04:43;;;;;;;13.20;10.03;;;3.10;66.60;;;;;;5012941;28;20461;-81
2022/04/04 06:07:10;;;;;;;13.60;9.23;;;3.30;66.10;;;;;;5012395;28;20484;-82
2022/04/04 06:09:38;;;;;;;14.67;9.97;;;3.30;66.50;;;;;;5011426;28;20459;-82
2022/04/04 06:12:05;;;;;;;21.33;10.80;;;3.30;66.10;;;;;;5013447;28;20460;-81
2022/04/04 06:14:32;;;;;;;15.73;10.03;;;3.50;64.70;;;;;;5013164;28;20561;-81
2022/04/04 06:16:59;;;;;;;12.50;8.20;;;3.50;64.80;;;;;;5014015;28;20473;-81
2022/04/04 06:19:27;;;;;;;13.53;9.40;;;3.60;64.60;;;;;;5014304;28;20958;-82
2022/04/04 06:21:54;;;;;;;13.50;9.60;;;3.50;64.70;;;;;;5015683;28;20459;-81
2022/04/04 06:24:21;;;;;;;14.77;9.23;;;3.60;64.40;;;;;;5018606;28;20449;-82
2022/04/04 06:26:49;;;;;;;13.73;8.73;;;3.60;63.30;;;;;;5017015;28;20479;-80
2022/04/04 06:29:16;;;;;;;16.30;8.23;;;3.60;63.00;;;;;;5017632;28;20481;-81
2022/04/04 06:31:44;;;;;;;15.07;9.47;;;3.70;63.50;;;;;;5017090;28;20456;-81
2022/04/04 06:34:11;;;;;;;12.73;9.53;;;3.60;63.20;;;;;;5017533;28;20531;-81
2022/04/04 06:36:38;;;;;;;13.50;8.90;;;3.70;62.20;;;;;;5016712;28;20484;-81
2022/04/04 06:39:05;;;;;;;16.23;9.47;;;3.70;62.10;;;;;;5016265;28;20479;-81
2022/04/04 06:41:32;;;;;;;14.73;10.30;;;3.80;62.40;;;;;;5016904;28;20453;-81
2022/04/04 06:44:00;;;;;;;11.33;8.50;;;3.90;61.80;;;;;;5000991;28;20460;-81
2022/04/04 06:46:27;;;;;;;11.00;8.33;;;4.10;61.60;;;;;;5018571;28;20945;-81
2022/04/04 06:48:53;;;;;;;11.33;8.20;;;4.30;58.80;;;;;;5016473;28;20473;-82
2022/04/04 06:51:21;;;;;;;12.10;8.93;;;4.50;57.20;;;;;;5017135;28;20462;-81
2022/04/04 06:53:48;;;;;;;10.97;7.10;;;4.70;58.20;;;;;;5016618;28;20453;-81
2022/04/04 06:56:16;;;;;;;13.17;9.50;;;4.90;56.30;;;;;;5018419;28;20970;-79
2022/04/04 06:58:42;;;;;;;13.97;8.43;;;5.00;54.50;;;;;;5017138;28;20522;-82
2022/04/04 07:01:10;;;;;;;14.40;10.00;;;5.30;53.10;;;;;;5018016;28;20456;-82
2022/04/04 07:03:37;;;;;;;12.03;8.63;;;5.50;51.40;;;;;;5016250;28;20457;-82
2022/04/04 07:06:05;;;;;;;15.13;9.80;;;5.80;52.00;;;;;;5017228;28;20834;-82
2022/04/04 07:08:31;;;;;;;14.50;10.40;;;6.00;49.40;;;;;;5015814;28;20481;-82
2022/04/04 07:11:00;;;;;;;14.13;9.57;;;6.10;48.70;;;;;;5016610;28;20826;-82
2022/04/04 07:13:26;;;;;;;19.13;8.97;;;6.20;46.50;;;;;;5016387;28;21036;-82
2022/04/04 07:15:53;;;;;;;10.53;7.37;;;6.40;46.10;;;;;;5016844;28;20453;-83
2022/04/04 07:18:21;;;;;;;12.70;8.07;;;6.60;44.60;;;;;;5011403;28;20477;-82
2022/04/04 07:20:48;;;;;;;12.43;7.03;;;6.50;41.80;;;;;;5014507;28;20547;-82
2022/04/04 07:23:15;;;;;;;11.47;8.27;;;6.80;42.10;;;;;;5014378;28;20460;-82
2022/04/04 07:25:42;;;;;;;12.53;8.80;;;6.80;41.90;;;;;;5013985;28;20449;-82
2022/04/04 07:28:09;;;;;;;12.63;7.23;;;6.80;40.20;;;;;;5015571;28;20513;-81
2022/04/04 07:30:36;;;;;;;10.03;6.37;;;6.90;39.50;;;;;;5016271;28;20445;-82
2022/04/04 07:33:04;;;;;;;13.35;7.70;;;7.20;40.00;;;;;;5015934;28;20542;-82
2022/04/04 07:35:33;;;;;;;10.97;6.60;;;7.30;38.40;;;;;;5017560;28;20289;-82
2022/04/04 07:37:59;;;;;;;18.70;7.60;;;7.40;38.00;;;;;;5016613;28;20469;-84
2022/04/04 07:40:26;;;;;;;12.80;6.43;;;7.50;37.20;;;;;;5015648;28;20464;-84
2022/04/04 07:42:53;;;;;;;8.60;5.60;;;7.30;35.20;;;;;;5017513;28;20457;-87
2022/04/04 07:45:20;;;;;;;14.43;6.80;;;7.50;34.80;;;;;;5017183;28;20509;-83
2022/04/04 07:47:49;;;;;;;9.57;6.03;;;7.40;35.90;;;;;;5015953;28;20481;-83
2022/04/04 07:50:16;;;;;;;10.83;7.57;;;7.10;33.60;;;;;;5013807;28;20899;-82
2022/04/04 07:52:44;;;;;;;10.80;5.57;;;7.00;35.60;;;;;;5016196;28;20449;-80
2022/04/04 07:55:11;;;;;;;8.80;6.30;;;7.10;34.50;;;;;;5020172;28;20568;-83
2022/04/04 07:57:39;;;;;;;11.50;6.87;;;7.10;35.10;;;;;;5019589;28;20480;-82
2022/04/04 08:00:08;;;;;;;11.75;6.68;;;7.40;35.70;;;;;;5014748;28;20466;-83
2022/04/04 08:02:35;;;;;;;9.40;6.80;;;7.30;33.70;;;;;;5015431;28;20198;-83
2022/04/04 08:05:03;;;;;;;11.40;7.77;;;7.30;33.60;;;;;;5016695;28;20460;-84
2022/04/04 08:07:29;;;;;;;12.90;6.77;;;7.40;33.00;;;;;;5017695;28;20543;-83
2022/04/04 08:09:58;;;;;;;10.33;7.43;;;7.40;33.80;;;;;;5012917;28;20847;-83
2022/04/04 08:12:26;;;;;;;7.97;5.23;;;7.20;32.40;;;;;;5015826;28;20461;-83
2022/04/04 08:14:53;;;;;;;13.67;6.57;;;7.20;33.60;;;;;;5015820;28;20457;-83
2022/04/04 08:17:19;;;;;;;10.50;6.10;;;7.40;33.70;;;;;;5014938;28;20484;-83
2022/04/04 08:19:46;;;;;;;9.13;6.37;;;7.50;32.70;;;;;;5015103;28;20832;-83
2022/04/04 08:22:13;;;;;;;9.30;6.33;;;7.60;33.90;;;;;;5015991;28;20537;-83
2022/04/04 08:24:41;;;;;;;10.87;6.30;;;7.60;32.30;;;;;;5015990;28;20457;-83
2022/04/04 08:27:10;;;;;;;9.57;5.23;;;7.80;32.10;;;;;;5015477;28;20485;-83
2022/04/04 08:29:36;;;;;;;9.10;6.53;;;7.70;30.00;;;;;;5014961;28;20477;-83
2022/04/04 08:32:04;;;;;;;8.60;5.90;;;7.80;30.40;;;;;;5015658;28;20453;-83
2022/04/04 08:34:31;;;;;;;10.10;5.77;;;7.80;30.70;;;;;;5016363;28;20541;-83
2022/04/04 08:36:58;;;;;;;10.30;6.37;;;7.70;29.80;;;;;;5014815;28;20476;-83
2022/04/04 08:39:25;;;;;;;12.30;6.43;;;7.70;29.20;;;;;;5016329;28;20507;-84
2022/04/04 08:41:56;;;;;;;13.00;6.43;;;7.70;29.30;;;;;;5016507;28;20552;-84
2022/04/04 08:44:25;;;;;;;9.13;6.60;;;7.90;29.10;;;;;;5015761;28;20468;-83
2022/04/04 08:46:52;;;;;;;10.87;7.03;;;7.80;29.60;;;;;;5015119;28;20489;-83
2022/04/04 08:49:19;;;;;;;10.30;6.20;;;7.90;28.10;;;;;;5014059;28;20953;-83
2022/04/04 08:51:48;;;;;;;12.03;6.73;;;7.80;28.60;;;;;;5015711;28;20462;-83
2022/04/04 08:54:15;;;;;;;16.10;7.17;;;7.90;28.20;;;;;;5015292;28;20457;-83
2022/04/04 08:56:43;;;;;;;11.00;6.33;;;8.00;28.80;;;;;;5014862;28;20480;-83
2022/04/04 08:59:10;;;;;;;16.60;6.97;;;7.90;26.30;;;;;;5014228;28;20457;-83
2022/04/04 09:01:38;;;;;;;12.60;6.33;;;8.00;27.80;;;;;;5015974;28;20461;-83
2022/04/04 09:04:18;;;;;;;13.30;6.30;;;8.20;27.80;;;;;;5015269;28;20460;-83
2022/04/04 09:06:49;;;;;;;18.17;6.17;;;8.10;26.40;;;;;;5016766;28;20477;-83
2022/04/04 09:09:19;;;;;;;13.53;6.27;;;8.10;26.90;;;;;;5012713;28;20484;-83
2022/04/04 09:11:53;;;;;;;11.13;6.30;;;8.10;27.50;;;;;;5015313;28;20460;-84
2022/04/04 09:14:23;;;;;;;11.83;5.60;;;8.10;26.50;;;;;;5015258;28;20458;-83
2022/04/04 09:16:57;;;;;;;10.40;6.27;;;8.10;27.40;;;;;;5014965;28;20477;-83
2022/04/04 09:19:33;;;;;;;10.13;6.23;;;8.20;27.80;;;;;;5013417;28;20468;-83
2022/04/04 09:22:05;;;;;;;10.43;6.03;;;8.20;28.00;;;;;;5013836;28;20460;-83
2022/04/04 09:24:55;;;;;;;8.70;5.03;;;8.20;26.50;;;;;;5014402;28;20452;-82
2022/04/04 09:27:24;;;;;;;9.43;5.53;;;8.00;26.40;;;;;;5012986;28;20527;-83
2022/04/04 09:29:54;;;;;;;12.07;7.00;;;8.10;26.50;;;;;;5013244;28;21014;-83
2022/04/04 09:32:23;;;;;;;9.10;5.87;;;8.00;26.20;;;;;;5015158;28;20453;-83
2022/04/04 09:34:56;;;;;;;9.37;5.93;;;8.30;26.60;;;;;;5013601;28;20465;-82
2022/04/04 09:37:24;;;;;;;8.87;6.00;;;8.30;27.20;;;;;;5014502;28;20508;-82
2022/04/04 09:39:52;;;;;;;8.87;5.50;;;8.50;26.70;;;;;;5014380;28;20765;-83
2022/04/04 09:42:20;;;;;;;11.37;7.00;;;8.50;26.70;;;;;;5014779;28;20457;-83
2022/04/04 09:44:57;;;;;;;10.00;6.47;;;8.60;26.80;;;;;;5017492;28;20452;-81
2022/04/04 09:47:49;;;;;;;19.33;5.97;;;8.40;26.70;;;;;;5016481;28;20480;-82
2022/04/04 09:50:39;;;;;;;8.53;4.73;;;8.40;26.70;;;;;;5014850;28;20481;-82
2022/04/04 09:53:08;;;;;;;11.43;6.80;;;8.50;26.70;;;;;;5013274;28;20492;-84
2022/04/04 09:55:37;;;;;;;8.93;5.50;;;8.50;26.70;;;;;;5014335;28;20548;-83
2022/04/04 09:58:06;;;;;;;11.50;7.87;;;8.60;26.80;;;;;;5017685;28;20487;-84
2022/04/04 10:00:35;;;;;;;11.47;7.47;;;8.50;27.80;;;;;;5017441;28;20460;-84
2022/04/04 10:03:05;;;;;;;7.80;5.60;;;8.30;27.90;;;;;;5019757;28;20457;-86
2022/04/04 10:05:32;;;;;;;13.07;7.17;;;8.40;28.20;;;;;;5018228;28;20535;-83
2022/04/04 10:08:01;;;;;;;11.50;7.03;;;8.10;28.80;;;;;;5017506;28;20473;-81
2022/04/04 10:10:29;;;;;;;9.70;7.00;;;8.00;29.90;;;;;;5017139;28;20508;-82
2022/04/04 10:12:57;;;;;;;12.73;6.97;;;8.00;31.30;;;;;;5017723;28;20823;-83
2022/04/04 10:15:26;;;;;;;11.93;7.10;;;8.00;31.30;;;;;;5018382;28;20460;-85
2022/04/04 10:17:54;;;;;;;11.73;6.87;;;8.10;32.30;;;;;;5018142;28;20479;-83
2022/04/04 10:20:23;;;;;;;16.73;8.07;;;8.00;32.00;;;;;;5017797;28;20456;-83
2022/04/04 10:22:52;;;;;;;12.83;6.07;;;8.10;34.20;;;;;;5017517;28;20449;-85
2022/04/04 10:25:24;;;;;;;11.70;7.30;;;8.20;31.70;;;;;;5018894;28;20452;-85
2022/04/04 10:27:51;;;;;;;9.80;6.97;;;8.20;31.20;;;;;;5018679;28;20484;-86
2022/04/04 10:30:18;;;;;;;11.63;7.10;;;8.10;31.40;;;;;;5018094;28;20553;-85
2022/04/04 10:32:50;;;;;;;12.23;8.50;;;7.90;31.60;;;;;;5019076;28;20459;-83
2022/04/04 10:35:22;;;;;;;12.70;7.50;;;7.90;32.60;;;;;;5019419;28;20453;-84
2022/04/04 10:37:49;;;;;;;14.10;8.00;;;8.10;31.30;;;;;;5020653;28;20503;-84
2022/04/04 10:40:21;;;;;;;10.93;6.03;;;8.30;32.20;;;;;;5018918;28;21078;-84
2022/04/04 10:43:01;;;;;;;11.47;7.10;;;8.20;30.40;;;;;;5019230;28;20468;-84
2022/04/04 10:45:30;;;;;;;15.17;9.00;;;8.00;30.60;;;;;;5018536;28;20457;-82
2022/04/04 10:48:12;;;;;;;11.40;7.37;;;7.90;34.10;;;;;;5038937;23;20488;-80
2022/04/04 10:53:57;;;;;;;13.57;8.90;;;7.70;32.80;;;;;;5034872;28;20444;-80
2022/04/04 10:56:25;;;;;;;8.83;6.67;;;7.80;32.20;;;;;;5036794;28;20961;-80
2022/04/04 10:58:55;;;;;;;12.37;7.90;;;7.80;34.10;;;;;;5035617;28;20471;-80
2022/04/04 11:01:24;;;;;;;14.50;7.83;;;7.80;32.80;;;;;;5037139;28;20535;-80
2022/04/04 11:03:59;;;;;;;11.33;8.50;;;8.10;33.00;;;;;;5037837;28;20451;-81
2022/04/04 11:09:32;;;;;;;15.97;8.90;;;7.80;34.10;;;;;;5037230;28;20554;-79
2022/04/04 11:12:18;;;;;;;10.60;8.13;;;7.60;35.80;;;;;;5037087;28;20455;-81
2022/04/04 11:14:57;;;;;;;10.77;7.97;;;7.40;35.20;;;;;;5036812;28;20504;-80
2022/04/04 11:17:33;;;;;;;12.17;7.83;;;7.30;38.20;;;;;;5035098;28;20476;-79
2022/04/04 11:20:04;;;;;;;15.97;8.70;;;6.80;42.10;;;;;;5034123;28;20456;-79
2022/04/04 11:22:35;;;;;;;10.90;7.53;;;6.00;50.70;;;;;;5035223;28;20458;-78
2022/04/04 11:25:05;;;;;;;17.33;9.40;;;5.90;58.40;;;;;;5034567;28;20463;-78
2022/04/04 11:27:34;;;;;;;12.00;9.93;;;6.00;63.50;;;;;;5034382;28;20515;-79
2022/04/04 11:30:03;;;;;;;13.97;11.30;;;5.90;61.90;;;;;;5034030;28;20854;-77
2022/04/04 11:32:33;;;;;;;15.90;12.50;;;5.90;62.50;;;;;;5034839;28;20460;-80
2022/04/04 11:35:02;;;;;;;15.57;10.87;;;5.90;70.00;;;;;;5035641;28;20482;-79
2022/04/04 11:37:29;;;;;;;15.40;11.30;;;5.70;69.30;;;;;;5034371;28;20472;-78
2022/04/04 11:40:08;;;;;;;16.37;12.97;;;5.70;99.90;;;;;;5034530;28;20833;-78
2022/04/04 11:42:41;;;;;;;18.00;13.90;;;5.70;99.90;;;;;;5034788;28;20463;-79
2022/04/04 11:45:08;;;;;;;14.07;12.57;;;5.90;99.90;;;;;;5034241;28;20542;-79
2022/04/04 11:47:40;;;;;;;19.87;17.37;;;5.90;99.90;;;;;;5034051;28;20475;-79
2022/04/04 11:50:08;;;;;;;14.93;13.30;;;5.80;99.90;;;;;;5034598;28;20854;-79
2022/04/04 11:52:51;;;;;;;19.90;14.40;;;5.70;99.90;;;;;;5034085;28;20456;-79
2022/04/04 11:55:27;;;;;;;17.47;15.50;;;5.60;99.90;;;;;;5034713;28;20874;-76
2022/04/04 11:57:57;;;;;;;22.37;19.87;;;5.50;99.90;;;;;;5033997;28;20476;-78
2022/04/04 12:00:25;;;;;;;24.63;22.50;;;5.50;99.90;;;;;;5033123;28;20482;-78
2022/04/04 12:02:52;;;;;;;26.03;23.87;;;5.50;99.90;;;;;;5033862;28;20456;-78
2022/04/04 12:05:23;;;;;;;36.70;34.10;;;5.50;99.90;;;;;;5033484;28;20452;-80
2022/04/04 12:07:51;;;;;;;37.17;34.50;;;5.60;99.90;;;;;;5033602;28;20900;-78
2022/04/04 12:10:31;;;;;;;32.80;30.30;;;5.50;99.90;;;;;;5033586;28;20476;-79
2022/04/04 12:13:00;;;;;;;38.00;35.50;;;5.50;99.90;;;;;;5033644;28;20511;-79
2022/04/04 12:15:28;;;;;;;34.67;31.97;;;5.50;99.90;;;;;;5033601;28;20460;-78
2022/04/04 12:17:54;;;;;;;76.20;71.83;;;5.50;99.90;;;;;;5033770;28;20503;-79
2022/04/04 12:20:22;;;;;;;63.23;59.83;;;5.40;99.90;;;;;;5031168;28;20456;-78
2022/04/04 12:25:35;;;;;;;251.10;242.30;;;5.20;99.90;;;;;;5033617;28;20420;-79
2022/04/04 12:28:03;;;;;;;348.77;336.93;;;5.20;99.90;;;;;;5033221;28;20472;-79
2022/04/04 12:30:36;;;;;;;87.00;82.60;;;5.00;99.90;;;;;;5033000;28;20476;-81
2022/04/04 12:33:10;;;;;;;189.40;181.97;;;5.20;99.90;;;;;;5033559;28;20464;-78
2022/04/04 12:35:48;;;;;;;224.30;216.40;;;5.10;99.90;;;;;;5033146;28;20459;-78
2022/04/04 12:38:26;;;;;;;140.27;134.57;;;5.20;99.90;;;;;;5033626;28;20479;-83
2022/04/04 12:41:09;;;;;;;346.33;334.90;;;5.30;99.90;;;;;;5034457;28;20957;-80
2022/04/04 12:43:36;;;;;;;171.80;164.93;;;5.40;99.90;;;;;;5035113;28;20452;-80
2022/04/04 12:46:04;;;;;;;206.00;198.13;;;5.30;99.90;;;;;;5034499;28;20953;-83
2022/04/04 12:48:36;;;;;;;133.17;127.57;;;5.30;99.90;;;;;;5032358;28;20571;-79
2022/04/04 12:51:04;;;;;;;351.00;339.40;;;5.20;99.90;;;;;;5033291;28;20534;-77
2022/04/04 12:53:47;;;;;;;391.40;378.60;;;5.20;99.90;;;;;;5033021;28;20458;-79
2022/04/04 12:56:16;;;;;;;296.17;286.20;;;5.30;99.90;;;;;;5033503;28;20506;-81
2022/04/04 12:58:42;;;;;;;435.97;421.20;;;5.40;99.90;;;;;;5034931;28;20479;-81
2022/04/04 13:01:16;;;;;;;381.20;368.33;;;5.40;99.90;;;;;;5037157;28;20542;-80
2022/04/04 13:03:50;;;;;;;368.63;356.50;;;5.50;99.90;;;;;;5036177;28;20506;-79